sensor_id;sensor_type;location;lat;lon;timestamp;P1;durP1;ratioP1;P2;durP2;ratioP2
74793;SDS011;63320;50.768;6.724;2023-12-20T00:02:02;8.23;;;6.07;;
74793;SDS011;63320;50.768;6.724;2023-12-20T00:04:28;7.90;;;5.55;;
74793;SDS011;63320;50.768;6.724;2023-12-20T00:06:53;6.40;;;4.10;;
74793;SDS011;63320;50.768;6.724;2023-12-20T00:09:19;5.40;;;3.37;;
74793;SDS011;63320;50.768;6.724;2023-12-20T00:11:44;4.72;;;2.78;;
74793;SDS011;63320;50.768;6.724;2023-12-20T00:14:10;4.37;;;2.40;;
74793;SDS011;63320;50.768;6.724;2023-12-20T00:16:35;4.40;;;2.23;;
74793;SDS011;63320;50.768;6.724;2023-12-20T00:19:00;4.00;;;2.03;;
74793;SDS011;63320;50.768;6.724;2023-12-20T00:21:25;4.70;;;2.00;;
74793;SDS011;63320;50.768;6.724;2023-12-20T00:23:50;3.33;;;1.67;;
74793;SDS011;63320;50.768;6.724;2023-12-20T00:26:17;3.57;;;1.60;;
74793;SDS011;63320;50.768;6.724;2023-12-20T00:28:42;3.83;;;2.05;;
74793;SDS011;63320;50.768;6.724;2023-12-20T00:31:07;3.70;;;1.80;;
74793;SDS011;63320;50.768;6.724;2023-12-20T00:33:33;8.00;;;3.17;;
74793;SDS011;63320;50.768;6.724;2023-12-20T00:35:58;4.33;;;2.17;;
74793;SDS011;63320;50.768;6.724;2023-12-20T00:38:23;6.07;;;3.33;;
74793;SDS011;63320;50.768;6.724;2023-12-20T00:40:48;5.97;;;3.40;;
74793;SDS011;63320;50.768;6.724;2023-12-20T00:43:15;10.40;;;3.87;;
74793;SDS011;63320;50.768;6.724;2023-12-20T00:45:40;7.75;;;4.20;;
74793;SDS011;63320;50.768;6.724;2023-12-20T00:48:05;8.20;;;4.70;;
74793;SDS011;63320;50.768;6.724;2023-12-20T00:50:30;9.05;;;5.18;;
74793;SDS011;63320;50.768;6.724;2023-12-20T00:52:56;10.83;;;5.93;;
74793;SDS011;63320;50.768;6.724;2023-12-20T00:55:21;10.60;;;6.33;;
74793;SDS011;63320;50.768;6.724;2023-12-20T00:57:46;12.33;;;6.00;;
74793;SDS011;63320;50.768;6.724;2023-12-20T01:00:13;13.33;;;6.87;;
74793;SDS011;63320;50.768;6.724;2023-12-20T01:02:38;11.82;;;7.00;;
74793;SDS011;63320;50.768;6.724;2023-12-20T01:05:04;12.73;;;6.03;;
74793;SDS011;63320;50.768;6.724;2023-12-20T01:07:29;12.63;;;6.70;;
74793;SDS011;63320;50.768;6.724;2023-12-20T01:09:54;16.83;;;8.07;;
74793;SDS011;63320;50.768;6.724;2023-12-20T01:12:19;14.60;;;7.70;;
74793;SDS011;63320;50.768;6.724;2023-12-20T01:14:44;16.30;;;7.60;;
74793;SDS011;63320;50.768;6.724;2023-12-20T01:17:11;12.77;;;7.43;;
74793;SDS011;63320;50.768;6.724;2023-12-20T01:19:36;13.43;;;8.23;;
74793;SDS011;63320;50.768;6.724;2023-12-20T01:22:01;19.07;;;8.77;;
74793;SDS011;63320;50.768;6.724;2023-12-20T01:24:26;15.17;;;8.73;;
74793;SDS011;63320;50.768;6.724;2023-12-20T01:26:52;20.23;;;8.67;;
74793;SDS011;63320;50.768;6.724;2023-12-20T01:29:17;17.23;;;9.90;;
74793;SDS011;63320;50.768;6.724;2023-12-20T01:31:42;20.80;;;11.73;;
74793;SDS011;63320;50.768;6.724;2023-12-20T01:34:08;19.10;;;10.70;;
74793;SDS011;63320;50.768;6.724;2023-12-20T01:36:34;21.05;;;10.38;;
74793;SDS011;63320;50.768;6.724;2023-12-20T01:38:59;19.83;;;10.83;;
74793;SDS011;63320;50.768;6.724;2023-12-20T01:41:24;23.50;;;11.20;;
74793;SDS011;63320;50.768;6.724;2023-12-20T01:43:49;19.13;;;10.87;;
74793;SDS011;63320;50.768;6.724;2023-12-20T01:46:14;15.70;;;8.20;;
74793;SDS011;63320;50.768;6.724;2023-12-20T01:48:40;15.75;;;6.13;;
74793;SDS011;63320;50.768;6.724;2023-12-20T01:51:07;10.85;;;4.00;;
74793;SDS011;63320;50.768;6.724;2023-12-20T01:53:32;11.05;;;3.25;;
74793;SDS011;63320;50.768;6.724;2023-12-20T01:55:58;7.97;;;3.38;;
74793;SDS011;63320;50.768;6.724;2023-12-20T01:58:23;11.80;;;3.38;;
74793;SDS011;63320;50.768;6.724;2023-12-20T02:00:49;11.63;;;3.20;;
74793;SDS011;63320;50.768;6.724;2023-12-20T02:03:14;13.73;;;2.85;;
74793;SDS011;63320;50.768;6.724;2023-12-20T02:05:39;13.23;;;3.17;;
74793;SDS011;63320;50.768;6.724;2023-12-20T02:08:06;12.43;;;2.60;;
74793;SDS011;63320;50.768;6.724;2023-12-20T02:10:31;12.35;;;2.35;;
74793;SDS011;63320;50.768;6.724;2023-12-20T02:12:56;12.50;;;2.37;;
74793;SDS011;63320;50.768;6.724;2023-12-20T02:15:22;8.60;;;3.13;;
74793;SDS011;63320;50.768;6.724;2023-12-20T02:17:47;11.63;;;2.83;;
74793;SDS011;63320;50.768;6.724;2023-12-20T02:20:12;11.20;;;2.10;;
74793;SDS011;63320;50.768;6.724;2023-12-20T02:22:38;9.00;;;2.27;;
74793;SDS011;63320;50.768;6.724;2023-12-20T02:25:04;9.90;;;2.38;;
74793;SDS011;63320;50.768;6.724;2023-12-20T02:27:29;14.27;;;2.55;;
74793;SDS011;63320;50.768;6.724;2023-12-20T02:29:55;16.38;;;2.22;;
74793;SDS011;63320;50.768;6.724;2023-12-20T02:32:20;14.33;;;1.80;;
74793;SDS011;63320;50.768;6.724;2023-12-20T02:34:46;10.57;;;1.50;;
74793;SDS011;63320;50.768;6.724;2023-12-20T02:37:12;10.82;;;1.75;;
74793;SDS011;63320;50.768;6.724;2023-12-20T02:39:38;9.10;;;1.45;;
74793;SDS011;63320;50.768;6.724;2023-12-20T02:42:04;10.85;;;1.45;;
74793;SDS011;63320;50.768;6.724;2023-12-20T02:44:29;11.40;;;2.80;;
74793;SDS011;63320;50.768;6.724;2023-12-20T02:46:54;11.63;;;1.77;;
74793;SDS011;63320;50.768;6.724;2023-12-20T02:49:19;11.20;;;2.40;;
74793;SDS011;63320;50.768;6.724;2023-12-20T02:51:44;10.70;;;2.37;;
74793;SDS011;63320;50.768;6.724;2023-12-20T02:54:09;8.73;;;2.20;;
74793;SDS011;63320;50.768;6.724;2023-12-20T02:56:36;12.60;;;2.27;;
74793;SDS011;63320;50.768;6.724;2023-12-20T02:59:01;13.38;;;3.20;;
74793;SDS011;63320;50.768;6.724;2023-12-20T03:01:26;11.73;;;2.83;;
74793;SDS011;63320;50.768;6.724;2023-12-20T03:03:52;9.63;;;2.40;;
74793;SDS011;63320;50.768;6.724;2023-12-20T03:06:17;14.63;;;2.90;;
74793;SDS011;63320;50.768;6.724;2023-12-20T03:08:42;10.65;;;2.55;;
74793;SDS011;63320;50.768;6.724;2023-12-20T03:11:07;16.23;;;4.07;;
74793;SDS011;63320;50.768;6.724;2023-12-20T03:13:34;15.00;;;2.83;;
74793;SDS011;63320;50.768;6.724;2023-12-20T03:15:59;12.00;;;2.88;;
74793;SDS011;63320;50.768;6.724;2023-12-20T03:18:24;13.27;;;2.20;;
74793;SDS011;63320;50.768;6.724;2023-12-20T03:20:49;14.67;;;3.43;;
74793;SDS011;63320;50.768;6.724;2023-12-20T03:23:15;12.07;;;2.47;;
74793;SDS011;63320;50.768;6.724;2023-12-20T03:25:40;10.33;;;2.23;;
74793;SDS011;63320;50.768;6.724;2023-12-20T03:28:05;11.40;;;2.63;;
74793;SDS011;63320;50.768;6.724;2023-12-20T03:30:31;11.03;;;2.00;;
74793;SDS011;63320;50.768;6.724;2023-12-20T03:32:57;12.70;;;2.28;;
74793;SDS011;63320;50.768;6.724;2023-12-20T03:35:22;10.67;;;2.70;;
74793;SDS011;63320;50.768;6.724;2023-12-20T03:37:47;11.37;;;2.50;;
74793;SDS011;63320;50.768;6.724;2023-12-20T03:40:12;12.33;;;2.53;;
74793;SDS011;63320;50.768;6.724;2023-12-20T03:42:37;12.57;;;2.60;;
74793;SDS011;63320;50.768;6.724;2023-12-20T03:45:03;15.50;;;3.03;;
74793;SDS011;63320;50.768;6.724;2023-12-20T03:47:29;16.40;;;3.03;;
74793;SDS011;63320;50.768;6.724;2023-12-20T03:49:54;17.13;;;3.03;;
74793;SDS011;63320;50.768;6.724;2023-12-20T03:52:19;15.33;;;3.27;;
74793;SDS011;63320;50.768;6.724;2023-12-20T03:54:45;13.77;;;3.60;;
74793;SDS011;63320;50.768;6.724;2023-12-20T03:57:10;17.27;;;3.40;;
74793;SDS011;63320;50.768;6.724;2023-12-20T03:59:35;14.13;;;3.10;;
74793;SDS011;63320;50.768;6.724;2023-12-20T04:02:01;15.82;;;3.58;;
74793;SDS011;63320;50.768;6.724;2023-12-20T04:04:27;14.83;;;3.17;;
74793;SDS011;63320;50.768;6.724;2023-12-20T04:06:52;20.00;;;3.38;;
74793;SDS011;63320;50.768;6.724;2023-12-20T04:09:17;19.83;;;4.17;;
74793;SDS011;63320;50.768;6.724;2023-12-20T04:11:43;17.00;;;3.93;;
74793;SDS011;63320;50.768;6.724;2023-12-20T04:14:08;17.73;;;4.13;;
74793;SDS011;63320;50.768;6.724;2023-12-20T04:16:33;18.33;;;4.07;;
74793;SDS011;63320;50.768;6.724;2023-12-20T04:18:58;17.20;;;3.80;;
74793;SDS011;63320;50.768;6.724;2023-12-20T04:21:25;16.60;;;3.80;;
74793;SDS011;63320;50.768;6.724;2023-12-20T04:23:50;13.70;;;3.13;;
74793;SDS011;63320;50.768;6.724;2023-12-20T04:26:15;16.13;;;3.63;;
74793;SDS011;63320;50.768;6.724;2023-12-20T04:28:40;20.40;;;3.47;;
74793;SDS011;63320;50.768;6.724;2023-12-20T04:31:05;9.83;;;3.50;;
74793;SDS011;63320;50.768;6.724;2023-12-20T04:33:30;12.10;;;3.70;;
74793;SDS011;63320;50.768;6.724;2023-12-20T04:35:56;13.63;;;3.20;;
74793;SDS011;63320;50.768;6.724;2023-12-20T04:38:22;14.43;;;3.27;;
74793;SDS011;63320;50.768;6.724;2023-12-20T04:40:47;16.33;;;4.05;;
74793;SDS011;63320;50.768;6.724;2023-12-20T04:43:12;14.40;;;3.60;;
74793;SDS011;63320;50.768;6.724;2023-12-20T04:45:38;13.10;;;3.70;;
74793;SDS011;63320;50.768;6.724;2023-12-20T04:48:03;11.70;;;3.27;;
74793;SDS011;63320;50.768;6.724;2023-12-20T04:50:28;17.50;;;4.03;;
74793;SDS011;63320;50.768;6.724;2023-12-20T04:52:53;14.07;;;3.80;;
74793;SDS011;63320;50.768;6.724;2023-12-20T04:55:20;15.07;;;3.73;;
74793;SDS011;63320;50.768;6.724;2023-12-20T04:57:45;18.40;;;3.88;;
74793;SDS011;63320;50.768;6.724;2023-12-20T05:00:11;15.93;;;3.90;;
74793;SDS011;63320;50.768;6.724;2023-12-20T05:02:36;12.27;;;3.08;;
74793;SDS011;63320;50.768;6.724;2023-12-20T05:05:01;17.70;;;3.93;;
74793;SDS011;63320;50.768;6.724;2023-12-20T05:07:26;14.57;;;3.60;;
74793;SDS011;63320;50.768;6.724;2023-12-20T05:09:52;16.27;;;4.33;;
74793;SDS011;63320;50.768;6.724;2023-12-20T05:12:18;13.83;;;3.20;;
74793;SDS011;63320;50.768;6.724;2023-12-20T05:14:43;12.98;;;3.00;;
74793;SDS011;63320;50.768;6.724;2023-12-20T05:17:08;14.10;;;3.33;;
74793;SDS011;63320;50.768;6.724;2023-12-20T05:19:34;13.67;;;3.00;;
74793;SDS011;63320;50.768;6.724;2023-12-20T05:21:59;15.43;;;3.10;;
74793;SDS011;63320;50.768;6.724;2023-12-20T05:24:24;14.93;;;3.40;;
74793;SDS011;63320;50.768;6.724;2023-12-20T05:26:49;17.80;;;3.40;;
74793;SDS011;63320;50.768;6.724;2023-12-20T05:29:16;16.17;;;2.97;;
74793;SDS011;63320;50.768;6.724;2023-12-20T05:31:41;15.40;;;3.70;;
74793;SDS011;63320;50.768;6.724;2023-12-20T05:34:06;20.60;;;3.50;;
74793;SDS011;63320;50.768;6.724;2023-12-20T05:36:31;11.50;;;3.03;;
74793;SDS011;63320;50.768;6.724;2023-12-20T05:38:56;14.73;;;2.97;;
74793;SDS011;63320;50.768;6.724;2023-12-20T05:41:21;13.83;;;3.00;;
74793;SDS011;63320;50.768;6.724;2023-12-20T05:43:47;16.13;;;3.33;;
74793;SDS011;63320;50.768;6.724;2023-12-20T05:46:13;20.90;;;3.60;;
74793;SDS011;63320;50.768;6.724;2023-12-20T05:48:38;15.20;;;3.33;;
74793;SDS011;63320;50.768;6.724;2023-12-20T05:51:04;15.57;;;3.10;;
74793;SDS011;63320;50.768;6.724;2023-12-20T05:53:29;13.40;;;2.77;;
74793;SDS011;63320;50.768;6.724;2023-12-20T05:55:54;13.23;;;2.63;;
74793;SDS011;63320;50.768;6.724;2023-12-20T05:58:19;16.40;;;3.43;;
74793;SDS011;63320;50.768;6.724;2023-12-20T06:00:44;15.57;;;3.13;;
74793;SDS011;63320;50.768;6.724;2023-12-20T06:03:11;14.70;;;2.93;;
74793;SDS011;63320;50.768;6.724;2023-12-20T06:05:36;14.32;;;3.17;;
74793;SDS011;63320;50.768;6.724;2023-12-20T06:08:01;17.43;;;3.80;;
74793;SDS011;63320;50.768;6.724;2023-12-20T06:10:26;14.27;;;3.43;;
74793;SDS011;63320;50.768;6.724;2023-12-20T06:12:51;18.20;;;3.47;;
74793;SDS011;63320;50.768;6.724;2023-12-20T06:15:17;15.93;;;3.47;;
74793;SDS011;63320;50.768;6.724;2023-12-20T06:17:42;17.37;;;3.23;;
74793;SDS011;63320;50.768;6.724;2023-12-20T06:20:09;15.27;;;3.47;;
74793;SDS011;63320;50.768;6.724;2023-12-20T06:22:34;14.30;;;3.17;;
74793;SDS011;63320;50.768;6.724;2023-12-20T06:24:59;17.93;;;3.43;;
74793;SDS011;63320;50.768;6.724;2023-12-20T06:27:25;22.17;;;3.30;;
74793;SDS011;63320;50.768;6.724;2023-12-20T06:29:50;12.83;;;2.93;;
74793;SDS011;63320;50.768;6.724;2023-12-20T06:32:15;11.47;;;3.60;;
74793;SDS011;63320;50.768;6.724;2023-12-20T06:34:40;12.23;;;3.20;;
74793;SDS011;63320;50.768;6.724;2023-12-20T06:37:07;9.57;;;2.80;;
74793;SDS011;63320;50.768;6.724;2023-12-20T06:39:32;18.02;;;3.15;;
74793;SDS011;63320;50.768;6.724;2023-12-20T06:41:57;17.07;;;2.73;;
74793;SDS011;63320;50.768;6.724;2023-12-20T06:44:22;16.03;;;2.90;;
74793;SDS011;63320;50.768;6.724;2023-12-20T06:46:47;15.60;;;3.50;;
74793;SDS011;63320;50.768;6.724;2023-12-20T06:49:12;16.40;;;3.20;;
74793;SDS011;63320;50.768;6.724;2023-12-20T06:51:38;14.27;;;3.70;;
74793;SDS011;63320;50.768;6.724;2023-12-20T06:54:04;16.83;;;3.43;;
74793;SDS011;63320;50.768;6.724;2023-12-20T06:56:29;11.52;;;2.90;;
74793;SDS011;63320;50.768;6.724;2023-12-20T06:58:55;18.30;;;3.13;;
74793;SDS011;63320;50.768;6.724;2023-12-20T07:01:20;23.27;;;3.67;;
74793;SDS011;63320;50.768;6.724;2023-12-20T07:03:45;13.03;;;3.30;;
74793;SDS011;63320;50.768;6.724;2023-12-20T07:06:10;17.97;;;3.70;;
74793;SDS011;63320;50.768;6.724;2023-12-20T07:08:35;15.37;;;3.67;;
74793;SDS011;63320;50.768;6.724;2023-12-20T07:11:02;16.77;;;3.17;;
74793;SDS011;63320;50.768;6.724;2023-12-20T07:13:27;11.50;;;3.13;;
74793;SDS011;63320;50.768;6.724;2023-12-20T07:15:52;13.57;;;3.37;;
74793;SDS011;63320;50.768;6.724;2023-12-20T07:18:18;17.97;;;3.57;;
74793;SDS011;63320;50.768;6.724;2023-12-20T07:20:43;10.83;;;3.20;;
74793;SDS011;63320;50.768;6.724;2023-12-20T07:23:08;17.07;;;3.03;;
74793;SDS011;63320;50.768;6.724;2023-12-20T07:25:33;12.93;;;3.03;;
74793;SDS011;63320;50.768;6.724;2023-12-20T07:28:00;18.87;;;3.50;;
74793;SDS011;63320;50.768;6.724;2023-12-20T07:30:25;14.82;;;2.70;;
74793;SDS011;63320;50.768;6.724;2023-12-20T07:32:50;13.30;;;3.07;;
74793;SDS011;63320;50.768;6.724;2023-12-20T07:35:15;14.33;;;2.53;;
74793;SDS011;63320;50.768;6.724;2023-12-20T07:37:41;12.48;;;2.50;;
74793;SDS011;63320;50.768;6.724;2023-12-20T07:40:06;16.17;;;4.03;;
74793;SDS011;63320;50.768;6.724;2023-12-20T07:42:32;14.23;;;2.72;;
74793;SDS011;63320;50.768;6.724;2023-12-20T07:44:58;14.63;;;2.60;;
74793;SDS011;63320;50.768;6.724;2023-12-20T07:47:23;13.18;;;2.67;;
74793;SDS011;63320;50.768;6.724;2023-12-20T07:49:48;19.83;;;3.60;;
74793;SDS011;63320;50.768;6.724;2023-12-20T07:52:14;14.27;;;2.80;;
74793;SDS011;63320;50.768;6.724;2023-12-20T07:54:39;15.33;;;3.13;;
74793;SDS011;63320;50.768;6.724;2023-12-20T07:57:04;14.80;;;3.03;;
74793;SDS011;63320;50.768;6.724;2023-12-20T07:59:30;15.23;;;3.00;;
74793;SDS011;63320;50.768;6.724;2023-12-20T08:01:56;12.27;;;3.03;;
74793;SDS011;63320;50.768;6.724;2023-12-20T08:04:21;16.02;;;3.58;;
74793;SDS011;63320;50.768;6.724;2023-12-20T08:06:46;13.23;;;3.10;;
74793;SDS011;63320;50.768;6.724;2023-12-20T08:09:12;16.67;;;3.63;;
74793;SDS011;63320;50.768;6.724;2023-12-20T08:11:37;11.63;;;2.85;;
74793;SDS011;63320;50.768;6.724;2023-12-20T08:14:02;21.53;;;3.27;;
74793;SDS011;63320;50.768;6.724;2023-12-20T08:16:27;17.27;;;3.23;;
74793;SDS011;63320;50.768;6.724;2023-12-20T08:18:54;17.53;;;3.40;;
74793;SDS011;63320;50.768;6.724;2023-12-20T08:21:19;11.80;;;2.95;;
74793;SDS011;63320;50.768;6.724;2023-12-20T08:23:44;17.87;;;3.43;;
74793;SDS011;63320;50.768;6.724;2023-12-20T08:26:09;17.47;;;3.57;;
74793;SDS011;63320;50.768;6.724;2023-12-20T08:28:34;16.40;;;3.53;;
74793;SDS011;63320;50.768;6.724;2023-12-20T08:31:01;14.60;;;3.03;;
74793;SDS011;63320;50.768;6.724;2023-12-20T08:33:26;13.47;;;3.30;;
74793;SDS011;63320;50.768;6.724;2023-12-20T08:35:53;12.43;;;3.03;;
74793;SDS011;63320;50.768;6.724;2023-12-20T08:38:18;18.15;;;3.40;;
74793;SDS011;63320;50.768;6.724;2023-12-20T08:40:43;17.57;;;3.50;;
74793;SDS011;63320;50.768;6.724;2023-12-20T08:43:08;15.40;;;3.13;;
74793;SDS011;63320;50.768;6.724;2023-12-20T08:45:33;17.47;;;3.13;;
74793;SDS011;63320;50.768;6.724;2023-12-20T08:47:59;17.30;;;3.37;;
74793;SDS011;63320;50.768;6.724;2023-12-20T08:50:24;19.43;;;3.47;;
74793;SDS011;63320;50.768;6.724;2023-12-20T08:52:50;14.43;;;2.83;;
74793;SDS011;63320;50.768;6.724;2023-12-20T08:55:16;18.63;;;2.92;;
74793;SDS011;63320;50.768;6.724;2023-12-20T08:57:41;11.00;;;2.87;;
74793;SDS011;63320;50.768;6.724;2023-12-20T09:00:06;14.27;;;3.17;;
74793;SDS011;63320;50.768;6.724;2023-12-20T09:02:32;13.10;;;3.17;;
74793;SDS011;63320;50.768;6.724;2023-12-20T09:04:57;12.47;;;2.93;;
74793;SDS011;63320;50.768;6.724;2023-12-20T09:07:22;13.27;;;2.80;;
74793;SDS011;63320;50.768;6.724;2023-12-20T09:09:49;14.13;;;2.67;;
74793;SDS011;63320;50.768;6.724;2023-12-20T09:12:14;9.45;;;2.60;;
74793;SDS011;63320;50.768;6.724;2023-12-20T09:14:39;12.93;;;2.60;;
74793;SDS011;63320;50.768;6.724;2023-12-20T09:17:04;16.27;;;3.40;;
74793;SDS011;63320;50.768;6.724;2023-12-20T09:19:30;13.80;;;3.27;;
74793;SDS011;63320;50.768;6.724;2023-12-20T09:21:55;13.30;;;2.97;;
74793;SDS011;63320;50.768;6.724;2023-12-20T09:24:20;16.20;;;3.43;;
74793;SDS011;63320;50.768;6.724;2023-12-20T09:26:46;15.70;;;3.40;;
74793;SDS011;63320;50.768;6.724;2023-12-20T09:29:12;19.10;;;3.15;;
74793;SDS011;63320;50.768;6.724;2023-12-20T09:31:37;15.38;;;2.35;;
74793;SDS011;63320;50.768;6.724;2023-12-20T09:34:02;11.43;;;2.20;;
74793;SDS011;63320;50.768;6.724;2023-12-20T09:36:27;11.13;;;2.57;;
74793;SDS011;63320;50.768;6.724;2023-12-20T09:38:52;12.33;;;2.73;;
74793;SDS011;63320;50.768;6.724;2023-12-20T09:41:18;19.07;;;2.90;;
74793;SDS011;63320;50.768;6.724;2023-12-20T09:43:44;12.13;;;2.77;;
74793;SDS011;63320;50.768;6.724;2023-12-20T09:46:09;14.95;;;2.60;;
74793;SDS011;63320;50.768;6.724;2023-12-20T09:48:36;11.40;;;2.53;;
74793;SDS011;63320;50.768;6.724;2023-12-20T09:51:02;10.57;;;2.65;;
74793;SDS011;63320;50.768;6.724;2023-12-20T09:53:27;16.15;;;2.78;;
74793;SDS011;63320;50.768;6.724;2023-12-20T09:55:54;11.20;;;3.03;;
74793;SDS011;63320;50.768;6.724;2023-12-20T09:58:19;15.60;;;2.53;;
74793;SDS011;63320;50.768;6.724;2023-12-20T10:00:47;15.18;;;2.70;;
74793;SDS011;63320;50.768;6.724;2023-12-20T10:03:12;11.10;;;2.40;;
74793;SDS011;63320;50.768;6.724;2023-12-20T10:05:38;18.30;;;2.92;;
74793;SDS011;63320;50.768;6.724;2023-12-20T10:08:04;13.05;;;3.00;;
74793;SDS011;63320;50.768;6.724;2023-12-20T10:10:29;14.32;;;2.28;;
74793;SDS011;63320;50.768;6.724;2023-12-20T10:13:01;13.23;;;2.27;;
74793;SDS011;63320;50.768;6.724;2023-12-20T10:15:26;17.52;;;2.92;;
74793;SDS011;63320;50.768;6.724;2023-12-20T10:17:53;13.93;;;2.47;;
74793;SDS011;63320;50.768;6.724;2023-12-20T10:20:18;14.13;;;3.00;;
74793;SDS011;63320;50.768;6.724;2023-12-20T10:22:43;16.67;;;2.63;;
74793;SDS011;63320;50.768;6.724;2023-12-20T10:25:08;12.80;;;2.80;;
74793;SDS011;63320;50.768;6.724;2023-12-20T10:27:34;10.70;;;2.23;;
74793;SDS011;63320;50.768;6.724;2023-12-20T10:29:59;11.07;;;2.33;;
74793;SDS011;63320;50.768;6.724;2023-12-20T10:32:25;11.37;;;2.50;;
74793;SDS011;63320;50.768;6.724;2023-12-20T10:34:52;11.88;;;2.20;;
74793;SDS011;63320;50.768;6.724;2023-12-20T10:37:17;12.60;;;2.50;;
74793;SDS011;63320;50.768;6.724;2023-12-20T10:39:42;15.63;;;2.97;;
74793;SDS011;63320;50.768;6.724;2023-12-20T10:42:08;14.70;;;2.47;;
74793;SDS011;63320;50.768;6.724;2023-12-20T10:44:33;12.85;;;3.15;;
74793;SDS011;63320;50.768;6.724;2023-12-20T10:46:59;10.83;;;2.30;;
74793;SDS011;63320;50.768;6.724;2023-12-20T10:49:24;15.80;;;3.40;;
74793;SDS011;63320;50.768;6.724;2023-12-20T10:51:51;14.13;;;2.90;;
74793;SDS011;63320;50.768;6.724;2023-12-20T10:54:17;13.57;;;2.60;;
74793;SDS011;63320;50.768;6.724;2023-12-20T10:56:42;14.20;;;2.60;;
74793;SDS011;63320;50.768;6.724;2023-12-20T10:59:08;12.33;;;2.67;;
74793;SDS011;63320;50.768;6.724;2023-12-20T11:01:35;12.30;;;2.70;;
74793;SDS011;63320;50.768;6.724;2023-12-20T11:04:03;19.10;;;2.67;;
74793;SDS011;63320;50.768;6.724;2023-12-20T11:06:32;10.45;;;2.33;;
74793;SDS011;63320;50.768;6.724;2023-12-20T11:09:01;14.38;;;2.72;;
74793;SDS011;63320;50.768;6.724;2023-12-20T11:11:29;11.70;;;2.38;;
74793;SDS011;63320;50.768;6.724;2023-12-20T11:13:57;11.45;;;2.85;;
74793;SDS011;63320;50.768;6.724;2023-12-20T11:16:24;9.52;;;2.53;;
74793;SDS011;63320;50.768;6.724;2023-12-20T11:18:50;10.47;;;2.40;;
74793;SDS011;63320;50.768;6.724;2023-12-20T11:21:15;11.75;;;2.47;;
74793;SDS011;63320;50.768;6.724;2023-12-20T11:23:40;9.88;;;2.10;;
74793;SDS011;63320;50.768;6.724;2023-12-20T11:26:08;16.02;;;2.67;;
74793;SDS011;63320;50.768;6.724;2023-12-20T11:28:33;13.82;;;2.80;;
74793;SDS011;63320;50.768;6.724;2023-12-20T11:31:00;9.70;;;2.20;;
74793;SDS011;63320;50.768;6.724;2023-12-20T11:33:26;12.13;;;3.17;;
74793;SDS011;63320;50.768;6.724;2023-12-20T11:35:51;10.43;;;2.50;;
74793;SDS011;63320;50.768;6.724;2023-12-20T11:38:16;11.13;;;2.40;;
74793;SDS011;63320;50.768;6.724;2023-12-20T11:40:42;12.53;;;2.83;;
74793;SDS011;63320;50.768;6.724;2023-12-20T11:43:08;13.98;;;2.78;;
74793;SDS011;63320;50.768;6.724;2023-12-20T11:45:34;12.52;;;2.60;;
74793;SDS011;63320;50.768;6.724;2023-12-20T11:47:59;11.90;;;2.30;;
74793;SDS011;63320;50.768;6.724;2023-12-20T11:50:24;13.57;;;2.30;;
74793;SDS011;63320;50.768;6.724;2023-12-20T11:52:50;9.17;;;2.03;;
74793;SDS011;63320;50.768;6.724;2023-12-20T11:55:16;10.82;;;2.55;;
74793;SDS011;63320;50.768;6.724;2023-12-20T11:57:41;12.47;;;2.00;;
74793;SDS011;63320;50.768;6.724;2023-12-20T12:00:08;12.80;;;2.42;;
74793;SDS011;63320;50.768;6.724;2023-12-20T12:02:33;13.00;;;2.90;;
74793;SDS011;63320;50.768;6.724;2023-12-20T12:04:59;13.93;;;2.50;;
74793;SDS011;63320;50.768;6.724;2023-12-20T12:07:24;10.13;;;2.50;;
74793;SDS011;63320;50.768;6.724;2023-12-20T12:09:49;10.47;;;2.27;;
74793;SDS011;63320;50.768;6.724;2023-12-20T12:12:14;10.93;;;2.93;;
74793;SDS011;63320;50.768;6.724;2023-12-20T12:14:40;11.47;;;2.40;;
74793;SDS011;63320;50.768;6.724;2023-12-20T12:17:06;15.60;;;2.70;;
74793;SDS011;63320;50.768;6.724;2023-12-20T12:19:34;10.27;;;2.83;;
74793;SDS011;63320;50.768;6.724;2023-12-20T12:22:05;12.63;;;3.27;;
74793;SDS011;63320;50.768;6.724;2023-12-20T12:24:31;11.88;;;2.35;;
74793;SDS011;63320;50.768;6.724;2023-12-20T12:26:57;11.90;;;2.90;;
74793;SDS011;63320;50.768;6.724;2023-12-20T12:29:22;12.93;;;2.75;;
74793;SDS011;63320;50.768;6.724;2023-12-20T12:31:47;15.03;;;2.80;;
74793;SDS011;63320;50.768;6.724;2023-12-20T12:34:14;16.03;;;3.10;;
74793;SDS011;63320;50.768;6.724;2023-12-20T12:36:39;18.30;;;2.90;;
74793;SDS011;63320;50.768;6.724;2023-12-20T12:39:04;14.18;;;2.63;;
74793;SDS011;63320;50.768;6.724;2023-12-20T12:41:30;9.63;;;2.00;;
74793;SDS011;63320;50.768;6.724;2023-12-20T12:43:55;13.77;;;2.45;;
74793;SDS011;63320;50.768;6.724;2023-12-20T12:46:20;11.27;;;2.23;;
74793;SDS011;63320;50.768;6.724;2023-12-20T12:48:45;10.27;;;2.20;;
74793;SDS011;63320;50.768;6.724;2023-12-20T12:51:12;10.73;;;3.00;;
74793;SDS011;63320;50.768;6.724;2023-12-20T12:53:37;9.32;;;2.45;;
74793;SDS011;63320;50.768;6.724;2023-12-20T12:56:02;10.27;;;2.47;;
74793;SDS011;63320;50.768;6.724;2023-12-20T12:58:27;14.32;;;2.72;;
74793;SDS011;63320;50.768;6.724;2023-12-20T13:00:53;10.47;;;2.47;;
74793;SDS011;63320;50.768;6.724;2023-12-20T13:03:18;14.03;;;2.67;;
74793;SDS011;63320;50.768;6.724;2023-12-20T13:05:43;13.80;;;2.70;;
74793;SDS011;63320;50.768;6.724;2023-12-20T13:08:09;12.90;;;2.73;;
74793;SDS011;63320;50.768;6.724;2023-12-20T13:10:35;11.55;;;2.78;;
74793;SDS011;63320;50.768;6.724;2023-12-20T13:13:00;11.40;;;2.60;;
74793;SDS011;63320;50.768;6.724;2023-12-20T13:15:25;15.33;;;2.93;;
74793;SDS011;63320;50.768;6.724;2023-12-20T13:17:50;11.00;;;2.57;;
74793;SDS011;63320;50.768;6.724;2023-12-20T13:20:16;16.43;;;3.33;;
74793;SDS011;63320;50.768;6.724;2023-12-20T13:22:41;10.97;;;3.00;;
74793;SDS011;63320;50.768;6.724;2023-12-20T13:25:08;15.80;;;3.83;;
74793;SDS011;63320;50.768;6.724;2023-12-20T13:27:33;12.32;;;2.72;;
74793;SDS011;63320;50.768;6.724;2023-12-20T13:29:58;15.10;;;3.00;;
74793;SDS011;63320;50.768;6.724;2023-12-20T13:32:23;8.30;;;3.00;;
74793;SDS011;63320;50.768;6.724;2023-12-20T13:34:48;8.87;;;2.67;;
74793;SDS011;63320;50.768;6.724;2023-12-20T13:37:14;15.53;;;2.80;;
74793;SDS011;63320;50.768;6.724;2023-12-20T13:39:39;12.77;;;2.60;;
74793;SDS011;63320;50.768;6.724;2023-12-20T13:42:06;14.30;;;2.60;;
74793;SDS011;63320;50.768;6.724;2023-12-20T13:44:31;10.02;;;2.72;;
74793;SDS011;63320;50.768;6.724;2023-12-20T13:46:56;13.63;;;2.87;;
74793;SDS011;63320;50.768;6.724;2023-12-20T13:49:21;12.83;;;2.67;;
74793;SDS011;63320;50.768;6.724;2023-12-20T13:51:46;12.73;;;2.70;;
74793;SDS011;63320;50.768;6.724;2023-12-20T13:54:12;9.77;;;2.57;;
74793;SDS011;63320;50.768;6.724;2023-12-20T13:56:37;9.43;;;2.60;;
74793;SDS011;63320;50.768;6.724;2023-12-20T13:59:03;11.20;;;2.10;;
74793;SDS011;63320;50.768;6.724;2023-12-20T14:01:28;13.20;;;3.10;;
74793;SDS011;63320;50.768;6.724;2023-12-20T14:03:54;12.07;;;2.53;;
74793;SDS011;63320;50.768;6.724;2023-12-20T14:06:19;8.83;;;2.17;;
74793;SDS011;63320;50.768;6.724;2023-12-20T14:08:44;11.10;;;2.20;;
74793;SDS011;63320;50.768;6.724;2023-12-20T14:11:09;8.20;;;2.40;;
74793;SDS011;63320;50.768;6.724;2023-12-20T14:13:34;8.37;;;2.00;;
74793;SDS011;63320;50.768;6.724;2023-12-20T14:16:01;11.00;;;1.90;;
74793;SDS011;63320;50.768;6.724;2023-12-20T14:18:26;8.00;;;1.75;;
74793;SDS011;63320;50.768;6.724;2023-12-20T14:20:51;6.40;;;2.00;;
74793;SDS011;63320;50.768;6.724;2023-12-20T14:23:16;6.87;;;1.60;;
74793;SDS011;63320;50.768;6.724;2023-12-20T14:25:41;8.67;;;1.70;;